Flight Track Log - Related Links

Times and Time Zones

All times are in EDT time to prevent confusion due to time zone crossing. See the EJA922 flight status page for this flight to view local times or setup timezone preferences in your user account.

Time Position Orientation Groundspeed Altitude Reporting Facility
EDT Latitude Longitude Course Direction KTS MPH feet Rate Location/Type
Thu 08:16:00 AM 37.0998 -77.6980 36° Northeast  Level Estimated
Thu 08:17:00 AM 37.1559 -77.6455 37° Northeast  Level Estimated
Thu 08:18:00 AM 37.2119 -77.5929 37° Northeast  Level Estimated
Thu 08:19:00 AM 37.2679 -77.5402 37° Northeast  Level Estimated
Thu 08:20:00 AM 37.3239 -77.4875 37° Northeast  Level Estimated
Thu 08:21:00 AM 37.3798 -77.4347 37° Northeast  Level Estimated
Thu 08:22:00 AM 37.4357 -77.3818 37° Northeast  Level Estimated
Thu 08:23:00 AM 37.4916 -77.3288 37° Northeast  Level Estimated
Thu 08:24:00 AM 37.5475 -77.2758 37° Northeast  Level Estimated
Thu 08:25:00 AM 37.6452 -77.1827 37° Northeast  Level Estimated
Thu 08:26:00 AM 37.7429 -77.0895 37° Northeast  Level Estimated
Thu 08:27:00 AM 37.8405 -76.9959 37° Northeast  Level Estimated
Thu 08:28:00 AM 37.9380 -76.9022 37° Northeast  Level Estimated
Thu 08:29:00 AM 38.0354 -76.8082 37° Northeast  Level Estimated
Thu 08:30:00 AM 38.1328 -76.7139 37° Northeast  Level Estimated
Thu 08:31:00 AM 38.2301 -76.6194 37° Northeast  Level Estimated
Thu 08:32:00 AM 38.3273 -76.5246 37° Northeast  Level Estimated
Thu 08:33:00 AM 38.4244 -76.4296 37° Northeast  Level Estimated
Thu 08:34:00 AM 38.5215 -76.3343 38° Northeast  Level Estimated
Thu 08:35:00 AM 38.6184 -76.2387 38° Northeast  Level Estimated
Thu 08:36:00 AM 38.7153 -76.1430 38° Northeast  Level Estimated
Thu 08:37:00 AM 38.8121 -76.0469 38° Northeast  Level Estimated
Thu 08:38:00 AM 38.9089 -75.9506 38° Northeast  Level Estimated
Thu 08:39:00 AM 39.0056 -75.8540 38° Northeast  Level Estimated
Thu 08:40:00 AM 39.1021 -75.7571 38° Northeast  Level Estimated
Thu 08:41:00 AM 39.1986 -75.6600 38° Northeast  Level Estimated
Thu 08:42:00 AM 39.2951 -75.5627 38° Northeast  Level Estimated
Thu 08:43:00 AM 39.3914 -75.4650 38° Northeast  Level Estimated
Thu 08:44:00 AM 39.4877 -75.3671 38° Northeast  Level Estimated
Thu 08:45:00 AM 39.5838 -75.2689 38° Northeast  Level Estimated
Thu 08:46:00 AM 39.6799 -75.1704 38° Northeast  Level Estimated
Thu 08:47:00 AM 39.7759 -75.0717 38° Northeast  Level Estimated
Thu 08:48:00 AM 39.8718 -74.9727 38° Northeast  Level Estimated
Thu 08:49:00 AM 39.9677 -74.8734 38° Northeast  Level Estimated
Thu 08:50:00 AM 40.0634 -74.7738 39° Northeast  Level Estimated
Thu 08:51:00 AM 40.1591 -74.6740 39° Northeast  Level Estimated
Thu 08:52:00 AM 40.2547 -74.5739 39° Northeast  Level Estimated
Thu 08:53:00 AM 40.3502 -74.4734 39° Northeast  Level Estimated
Thu 08:54:00 AM 40.4456 -74.3727 39° Northeast  Level Estimated
Thu 08:55:00 AM 40.5409 -74.2718 39° Northeast  Level Estimated
Thu 08:56:00 AM 40.6361 -74.1705 39° Northeast  Level Estimated
Thu 08:57:00 AM 40.7313 -74.0689 39° Northeast  Level Estimated
Thu 08:58:00 AM 40.8264 -73.9671 39° Northeast  Level Estimated
Thu 08:59:00 AM 40.9213 -73.8649 39° Northeast  Level Estimated
Thu 09:00:00 AM 41.0162 -73.7625 39° Northeast  Level Estimated
Thu 09:01:00 AM 41.0669 -73.7076 39° Northeast  Level Estimated
Thu 09:02:00 AM 41.0669 -73.7076 37° Northeast  Level Estimated
Thu 09:03:00 AM 41.0669 -73.7076 37° Northeast  Level Estimated
Thu 09:04:00 AM 41.0669 -73.7076 37° Northeast  Level Estimated
Thu 09:05:00 AM 41.0669 -73.7076 37° Northeast  Level Estimated
Thu 09:06:00 AM 41.0669 -73.7076 37° Northeast  Level Estimated
Thu 09:07:00 AM 41.0669 -73.7076 37° Northeast  Level Estimated
Thu 09:08:00 AM 41.0669 -73.7076 37° Northeast  Level Estimated
Thu 09:09:00 AM 41.0669 -73.7076 37° Northeast  Level Estimated
Thu 09:10:00 AM 41.0669 -73.7076 37° Northeast  Level Estimated
Thu 09:11:00 AM 41.0669 -73.7076 37° Northeast  Level Estimated
Thu 09:12:00 AM 41.0669 -73.7076 37° Northeast  Level Estimated
Thu 09:13:00 AM 41.0669 -73.7076 37° Northeast  Level Estimated
Thu 09:14:00 AM 41.0669 -73.7076 37° Northeast  Level Estimated
Thu 09:15:00 AM 41.0669 -73.7076 37° Northeast  Level Estimated
Thu 09:16:00 AM 41.0669 -73.7076 37° Northeast  Level Estimated
Thu 09:17:00 AM 41.0669 -73.7076 37° Northeast  Level Estimated
Thu 09:18:00 AM 41.0669 -73.7076 37° Northeast  Level Estimated
Thu 09:19:00 AM 41.0669 -73.7076 37° Northeast  Level Estimated
Thu 09:20:00 AM 41.0669 -73.7076 37° Northeast  Level Estimated
Thu 09:21:00 AM 41.0669 -73.7076 37° Northeast  Level Estimated
Thu 09:22:00 AM 41.0669 -73.7076 37° Northeast  Level Estimated
Thu 09:23:00 AM 41.0669 -73.7076 37° Northeast  Level Estimated
Thu 09:24:00 AM 41.0669 -73.7076 37° Northeast  Level Estimated
Thu 09:25:00 AM 41.0669 -73.7076 37° Northeast  Level Estimated
Thu 09:26:00 AM 41.0669 -73.7076 37° Northeast  Level Estimated
Thu 09:27:00 AM 41.0669 -73.7076 37° Northeast  Level Estimated
Thu 09:28:00 AM 41.0669 -73.7076 37° Northeast  Level Estimated
Thu 09:29:00 AM 41.0669 -73.7076 37° Northeast  Level Estimated
Thu 09:30:00 AM 41.0669 -73.7076 37° Northeast  Level Estimated
Thu 09:31:00 AM 41.0669 -73.7076 37° Northeast  Level Estimated
Thu 09:32:00 AM 41.0669 -73.7076 37° Northeast  Level Estimated
Thu 09:33:00 AM 41.0669 -73.7076 37° Northeast  Level Estimated
Thu 09:34:00 AM 41.0669 -73.7076 37° Northeast  Level Estimated
Thu 09:35:00 AM 41.0669 -73.7076 37° Northeast  Level Estimated
Thu 09:36:00 AM 41.0669 -73.7076 37° Northeast  Level Estimated
Thu 09:37:00 AM 41.0669 -73.7076 37° Northeast  Level Estimated
Thu 09:38:00 AM 41.0669 -73.7076 37° Northeast  Level Estimated
Thu 09:39:00 AM 41.0669 -73.7076 37° Northeast  Level Estimated
Thu 09:40:00 AM 41.0669 -73.7076 37° Northeast  Level Estimated
Thu 09:41:00 AM 41.0669 -73.7076 37° Northeast  Level Estimated
Thu 09:42:00 AM 41.0669 -73.7076 37° Northeast  Level Estimated
Thu 09:43:00 AM 41.0669 -73.7076 37° Northeast  Level Estimated
Thu 09:44:00 AM 41.0669 -73.7076 37° Northeast  Level Estimated
Thu 09:45:00 AM 41.0669 -73.7076 37° Northeast  Level Estimated
Thu 09:46:00 AM 41.0669 -73.7076 37° Northeast  Level Estimated
Thu 09:47:00 AM 41.0669 -73.7076 37° Northeast  Level Estimated
Thu 09:48:00 AM 41.0669 -73.7076 37° Northeast  Level Estimated
Thu 09:49:00 AM 41.0669 -73.7076 37° Northeast  Level Estimated
Thu 09:50:00 AM 41.0669 -73.7076 37° Northeast  Level Estimated
Thu 09:51:00 AM 41.0669 -73.7076 37° Northeast  Level Estimated
Thu 09:52:00 AM 41.0669 -73.7076 37° Northeast  Level Estimated
Thu 09:53:00 AM 41.0669 -73.7076 37° Northeast  Level Estimated
Thu 09:54:00 AM 41.0669 -73.7076 37° Northeast  Level Estimated
Thu 09:55:00 AM 41.0669 -73.7076 37° Northeast  Level Estimated
Thu 09:56:00 AM 41.0669 -73.7076 37° Northeast  Level Estimated

Login

Don't have an account? Register now (free) for customized features, flight alerts, and more!